createdAt,value
2018-04-28T00:01:30.850Z,4.70
2018-04-28T00:05:00.435Z,4.00
2018-04-28T00:12:11.810Z,5.23
2018-04-28T00:15:33.653Z,5.10
2018-04-28T00:18:56.302Z,4.30
2018-04-28T00:22:19.073Z,4.23
2018-04-28T00:25:40.848Z,4.80
2018-04-28T00:29:03.086Z,5.30
2018-04-28T00:32:24.763Z,5.10
2018-04-28T00:35:47.150Z,5.50
2018-04-28T00:39:09.838Z,5.97
2018-04-28T00:42:31.788Z,4.90
2018-04-28T00:46:15.500Z,4.77
2018-04-28T00:49:40.974Z,5.10
2018-04-28T00:53:02.775Z,4.77
2018-04-28T00:56:26.059Z,4.53
2018-04-28T00:59:48.763Z,3.70
2018-04-28T01:03:10.704Z,4.17
2018-04-28T01:06:34.454Z,4.27
2018-04-28T01:10:02.214Z,4.10
2018-04-28T01:13:24.015Z,4.30
2018-04-28T01:16:47.540Z,3.67
2018-04-28T01:20:09.276Z,4.00
2018-04-28T01:23:32.906Z,3.53
2018-04-28T01:27:11.364Z,3.50
2018-04-28T01:30:37.801Z,3.23
2018-04-28T01:34:05.483Z,3.93
2018-04-28T01:37:36.231Z,4.10
2018-04-28T01:41:03.893Z,3.70
2018-04-28T01:44:31.613Z,3.20
2018-04-28T01:47:54.128Z,4.33
2018-04-28T01:51:15.859Z,4.50
2018-04-28T01:54:43.541Z,3.27
2018-04-28T01:58:20.147Z,3.60
2018-04-28T02:01:42.682Z,3.20
2018-04-28T02:05:05.104Z,3.30
2018-04-28T02:08:26.819Z,2.87
2018-04-28T02:11:52.288Z,3.27
2018-04-28T02:15:30.891Z,3.10
2018-04-28T02:18:58.368Z,2.90
2018-04-28T02:22:25.934Z,3.17
2018-04-28T02:25:49.601Z,2.70
2018-04-28T02:29:20.094Z,3.33
2018-04-28T02:32:41.882Z,2.70
2018-04-28T02:36:11.483Z,3.30
2018-04-28T02:39:49.005Z,3.70
2018-04-28T02:43:10.758Z,3.30
2018-04-28T02:46:37.363Z,3.90
2018-04-28T02:50:01.119Z,3.03
2018-04-28T02:53:29.472Z,4.27
2018-04-28T02:56:52.127Z,3.30
2018-04-28T03:00:18.812Z,3.33
2018-04-28T03:03:44.330Z,3.03
2018-04-28T03:07:07.422Z,3.33
2018-04-28T03:10:30.082Z,2.77
2018-04-28T03:13:51.859Z,3.63
2018-04-28T03:17:15.425Z,3.00
2018-04-28T03:20:52.056Z,3.47
2018-04-28T03:24:19.812Z,3.23
2018-04-28T03:27:44.472Z,3.13
2018-04-28T03:31:08.038Z,3.27
2018-04-28T03:34:35.614Z,2.73
2018-04-28T03:38:02.555Z,3.50
2018-04-28T03:41:25.313Z,3.33
2018-04-28T03:44:49.003Z,3.63
2018-04-28T03:48:11.450Z,3.50
2018-04-28T03:51:33.173Z,2.83
2018-04-28T03:54:55.806Z,3.33
2018-04-28T03:58:23.408Z,3.10
2018-04-28T04:01:51.861Z,3.17
2018-04-28T04:05:15.422Z,3.90
2018-04-28T04:08:37.988Z,3.37
2018-04-28T04:12:05.606Z,2.73
2018-04-28T04:15:33.081Z,3.23
2018-04-28T04:19:00.559Z,3.20
2018-04-28T04:22:28.113Z,3.53
2018-04-28T04:25:52.964Z,2.93
2018-04-28T04:29:17.836Z,3.13
2018-04-28T04:32:40.397Z,3.07
2018-04-28T04:36:02.152Z,3.40
2018-04-28T04:39:25.840Z,3.27
2018-04-28T04:42:53.640Z,2.90
2018-04-28T04:46:33.873Z,3.20
2018-04-28T04:49:56.520Z,2.87
2018-04-28T04:53:38.052Z,2.40
2018-04-28T04:56:59.789Z,2.60
2018-04-28T05:00:36.502Z,3.50
2018-04-28T05:04:16.064Z,2.70
2018-04-28T05:07:38.699Z,2.90
2018-04-28T05:11:07.506Z,3.57
2018-04-28T05:14:30.216Z,2.83
2018-04-28T05:17:51.988Z,3.10
2018-04-28T05:21:14.502Z,3.00
2018-04-28T05:24:43.064Z,3.43
2018-04-28T05:28:10.544Z,3.03
2018-04-28T05:31:34.138Z,2.80
2018-04-28T05:35:01.914Z,2.83
2018-04-28T05:38:29.388Z,3.83
2018-04-28T05:42:06.693Z,3.33
2018-04-28T05:45:34.282Z,2.90
2018-04-28T05:48:56.976Z,3.67
2018-04-28T05:52:24.912Z,2.70
2018-04-28T05:55:56.467Z,3.33
2018-04-28T05:59:23.174Z,3.10
2018-04-28T06:02:45.763Z,2.90
2018-04-28T06:06:13.221Z,3.60
2018-04-28T06:09:40.825Z,3.50
2018-04-28T06:13:23.024Z,3.03
2018-04-28T06:16:50.558Z,3.00
2018-04-28T06:20:18.123Z,3.83
2018-04-28T06:23:39.794Z,3.53
2018-04-28T06:27:01.509Z,3.53
2018-04-28T06:30:23.215Z,3.07
2018-04-28T06:33:44.945Z,2.93
2018-04-28T06:37:06.733Z,3.37
2018-04-28T06:40:28.461Z,2.63
2018-04-28T06:43:50.210Z,2.63
2018-04-28T06:47:11.935Z,3.67
2018-04-28T06:50:33.667Z,2.73
2018-04-28T06:53:55.416Z,2.47
2018-04-28T06:57:17.225Z,2.97
2018-04-28T07:00:38.976Z,3.13
2018-04-28T07:04:00.726Z,2.77
2018-04-28T07:07:22.512Z,2.67
2018-04-28T07:10:44.273Z,2.90
2018-04-28T07:14:06.023Z,2.70
2018-04-28T07:17:27.791Z,3.23
2018-04-28T07:20:49.536Z,2.80
2018-04-28T07:24:11.267Z,3.00
2018-04-28T07:27:33.001Z,2.97
2018-04-28T07:30:54.739Z,3.60
2018-04-28T07:34:16.469Z,2.97
2018-04-28T07:37:38.228Z,3.13
2018-04-28T07:40:59.961Z,2.60
2018-04-28T07:44:21.692Z,2.80
2018-04-28T07:47:43.498Z,2.93
2018-04-28T07:51:05.170Z,3.50
2018-04-28T07:54:26.914Z,2.73
2018-04-28T07:57:48.652Z,3.30
2018-04-28T08:01:13.143Z,2.60
2018-04-28T08:04:34.906Z,3.30
2018-04-28T08:07:56.624Z,3.03
2018-04-28T08:11:18.342Z,2.57
2018-04-28T08:14:40.237Z,3.33
2018-04-28T08:18:01.986Z,2.67
2018-04-28T08:21:23.748Z,3.37
2018-04-28T08:24:56.305Z,3.20
2018-04-28T08:28:21.371Z,2.83
2018-04-28T08:32:07.530Z,2.40
2018-04-28T08:39:12.256Z,3.20
2018-04-28T08:42:33.980Z,2.70
2018-04-28T08:45:55.748Z,2.73
2018-04-28T08:49:17.486Z,3.93
2018-04-28T08:52:39.224Z,3.30
2018-04-28T08:56:00.956Z,2.30
2018-04-28T08:59:22.702Z,3.33
2018-04-28T09:02:44.468Z,3.57
2018-04-28T09:06:06.216Z,3.47
2018-04-28T09:09:27.954Z,2.90
2018-04-28T09:12:49.736Z,3.07
2018-04-28T09:16:11.525Z,3.40
2018-04-28T09:19:33.394Z,2.97
2018-04-28T09:22:55.150Z,3.00
2018-04-28T09:26:17.050Z,2.90
2018-04-28T09:29:38.833Z,3.30
2018-04-28T09:33:00.675Z,3.60
2018-04-28T09:36:22.684Z,2.60
2018-04-28T09:39:51.005Z,2.73
2018-04-28T09:43:13.284Z,3.40
2018-04-28T09:46:35.229Z,2.10
2018-04-28T09:49:59.273Z,2.60
2018-04-28T09:53:22.716Z,2.27
2018-04-28T09:56:45.356Z,2.83
2018-04-28T10:00:14.370Z,2.20
2018-04-28T10:03:38.438Z,2.80
2018-04-28T10:07:00.792Z,2.70
2018-04-28T10:10:22.517Z,2.40
2018-04-28T10:13:44.255Z,2.50
2018-04-28T10:17:05.978Z,2.37
2018-04-28T10:20:27.751Z,2.90
2018-04-28T10:23:49.502Z,2.80
2018-04-28T10:27:11.233Z,3.07
2018-04-28T10:30:32.977Z,2.67
2018-04-28T10:33:54.697Z,2.80
2018-04-28T10:37:16.429Z,3.00
2018-04-28T10:40:38.205Z,2.87
2018-04-28T10:43:59.926Z,3.40
2018-04-28T10:47:21.659Z,3.23
2018-04-28T10:50:43.568Z,3.00
2018-04-28T10:54:05.285Z,3.37
2018-04-28T10:57:27.023Z,2.73
2018-04-28T11:00:48.750Z,3.57
2018-04-28T11:04:10.492Z,2.83
2018-04-28T11:07:32.207Z,5.03
2018-04-28T11:10:53.970Z,3.50
2018-04-28T11:14:15.709Z,3.30
2018-04-28T11:17:37.430Z,4.03
2018-04-28T11:20:59.174Z,3.03
2018-04-28T11:24:20.900Z,3.40
2018-04-28T11:27:42.629Z,3.07
2018-04-28T11:31:04.370Z,3.30
2018-04-28T11:34:26.093Z,3.07
2018-04-28T11:37:47.813Z,3.70
2018-04-28T11:41:09.542Z,3.00
2018-04-28T11:44:31.280Z,3.33
2018-04-28T11:47:52.989Z,3.80
2018-04-28T11:51:14.709Z,3.20
2018-04-28T11:54:36.426Z,3.23
2018-04-28T11:57:58.133Z,3.77
2018-04-28T12:01:19.863Z,3.70
2018-04-28T12:04:41.612Z,4.10
2018-04-28T12:08:03.353Z,3.73
2018-04-28T12:11:25.078Z,3.80
2018-04-28T12:14:46.797Z,3.47
2018-04-28T12:18:08.521Z,3.33
2018-04-28T12:21:30.241Z,3.60
2018-04-28T12:24:51.969Z,3.40
2018-04-28T12:28:13.688Z,3.50
2018-04-28T12:31:35.405Z,3.40
2018-04-28T12:34:57.131Z,3.73
2018-04-28T12:38:18.856Z,2.97
2018-04-28T12:41:40.604Z,4.00
2018-04-28T12:45:02.330Z,2.47
2018-04-28T12:48:24.071Z,3.57
2018-04-28T12:51:45.791Z,3.27
2018-04-28T12:55:07.585Z,3.77
2018-04-28T12:58:29.319Z,3.83
2018-04-28T13:01:51.042Z,3.37
2018-04-28T13:05:12.764Z,3.50
2018-04-28T13:08:34.472Z,3.30
2018-04-28T13:11:56.206Z,4.37
2018-04-28T13:15:17.954Z,3.63
2018-04-28T13:18:39.673Z,4.03
2018-04-28T13:22:01.406Z,5.00
2018-04-28T13:25:23.167Z,4.57
2018-04-28T13:28:44.883Z,3.90
2018-04-28T13:32:06.601Z,4.07
2018-04-28T13:35:28.329Z,4.20
2018-04-28T13:38:50.042Z,3.90
2018-04-28T13:42:11.785Z,4.73
2018-04-28T13:45:33.505Z,3.83
2018-04-28T13:48:55.233Z,4.53
2018-04-28T13:52:16.997Z,4.10
2018-04-28T13:55:38.730Z,4.97
2018-04-28T13:59:00.446Z,5.30
2018-04-28T14:02:22.166Z,5.37
2018-04-28T14:05:44.950Z,4.73
2018-04-28T14:09:06.669Z,4.30
2018-04-28T14:12:28.401Z,4.70
2018-04-28T14:15:50.147Z,3.97
2018-04-28T14:19:11.866Z,4.00
2018-04-28T14:22:33.652Z,5.43
2018-04-28T14:25:55.396Z,3.97
2018-04-28T14:29:17.131Z,5.20
2018-04-28T14:32:38.853Z,4.87
2018-04-28T14:36:00.573Z,4.10
2018-04-28T14:39:22.304Z,4.03
2018-04-28T14:42:44.046Z,3.50
2018-04-28T14:46:05.788Z,4.43
2018-04-28T14:49:27.529Z,4.40
2018-04-28T14:52:49.266Z,3.50
2018-04-28T14:56:11.017Z,4.00
2018-04-28T14:59:32.734Z,4.20
2018-04-28T15:02:54.469Z,3.87
2018-04-28T15:06:16.187Z,4.33
2018-04-28T15:09:38.026Z,4.07
2018-04-28T15:12:59.657Z,4.73
2018-04-28T15:16:21.381Z,4.23
2018-04-28T15:19:43.113Z,3.50
2018-04-28T15:23:04.849Z,4.10
2018-04-28T15:26:26.578Z,4.10
2018-04-28T15:29:48.300Z,5.17
2018-04-28T15:33:10.029Z,3.90
2018-04-28T15:36:31.762Z,3.93
2018-04-28T15:39:53.482Z,3.80
2018-04-28T15:43:15.205Z,4.30
2018-04-28T15:46:36.945Z,4.53
2018-04-28T15:49:58.744Z,4.50
2018-04-28T15:53:20.414Z,4.20
2018-04-28T15:56:42.137Z,4.10
2018-04-28T16:00:03.859Z,3.83
2018-04-28T16:03:25.591Z,5.27
2018-04-28T16:06:47.316Z,5.07
2018-04-28T16:10:09.037Z,4.27
2018-04-28T16:13:30.768Z,4.50
2018-04-28T16:16:52.493Z,4.20
2018-04-28T16:20:14.220Z,4.60
2018-04-28T16:23:36.007Z,4.57
2018-04-28T16:26:57.741Z,5.30
2018-04-28T16:30:19.457Z,4.40
2018-04-28T16:33:41.295Z,3.67
2018-04-28T16:37:03.022Z,3.43
2018-04-28T16:40:24.829Z,4.00
2018-04-28T16:43:46.561Z,5.10
2018-04-28T16:47:08.281Z,7.30
2018-04-28T16:50:30.299Z,4.90
2018-04-28T16:53:52.075Z,4.10
2018-04-28T16:57:13.825Z,4.00
2018-04-28T17:00:35.776Z,4.57
2018-04-28T17:03:57.506Z,3.77
2018-04-28T17:07:19.650Z,3.70
2018-04-28T17:10:41.387Z,4.13
2018-04-28T17:14:03.206Z,4.40
2018-04-28T17:17:30.687Z,3.80
2018-04-28T17:20:52.413Z,3.73
2018-04-28T17:24:14.140Z,4.67
2018-04-28T17:27:35.866Z,5.10
2018-04-28T17:30:57.577Z,5.47
2018-04-28T17:34:19.316Z,6.10
2018-04-28T17:37:41.045Z,5.03
2018-04-28T17:41:02.757Z,3.80
2018-04-28T17:44:24.814Z,4.23
2018-04-28T17:47:46.537Z,4.63
2018-04-28T17:51:08.706Z,5.80
2018-04-28T17:54:30.443Z,6.70
2018-04-28T17:57:52.169Z,6.27
2018-04-28T18:01:13.894Z,4.13
2018-04-28T18:04:35.612Z,4.37
2018-04-28T18:07:57.349Z,5.40
2018-04-28T18:11:19.138Z,9.70
2018-04-28T18:14:40.900Z,6.80
2018-04-28T18:18:02.611Z,6.70
2018-04-28T18:21:24.370Z,5.73
2018-04-28T18:24:46.445Z,8.10
2018-04-28T18:28:08.465Z,6.97
2018-04-28T18:31:30.603Z,5.47
2018-04-28T18:34:52.327Z,3.93
2018-04-28T18:38:14.057Z,4.67
2018-04-28T18:41:35.791Z,4.60
2018-04-28T18:44:57.540Z,4.43
2018-04-28T18:48:19.270Z,7.03
2018-04-28T18:51:41.069Z,9.50
2018-04-28T18:55:02.772Z,11.20
2018-04-28T18:58:25.111Z,8.80
2018-04-28T19:01:46.936Z,6.30
2018-04-28T19:05:08.709Z,5.43
2018-04-28T19:08:31.319Z,6.10
2018-04-28T19:11:53.170Z,5.13
2018-04-28T19:15:15.759Z,5.80
2018-04-28T19:18:37.547Z,6.33
2018-04-28T19:21:59.332Z,5.17
2018-04-28T19:25:21.101Z,9.80
2018-04-28T19:28:42.950Z,12.40
2018-04-28T19:32:04.749Z,11.40
2018-04-28T19:35:26.516Z,8.23
2018-04-28T19:38:48.313Z,8.10
2018-04-28T19:42:10.101Z,6.97
2018-04-28T19:45:31.916Z,5.93
2018-04-28T19:48:53.753Z,6.67
2018-04-28T19:52:15.555Z,7.23
2018-04-28T19:55:37.374Z,6.60
2018-04-28T19:58:59.168Z,6.00
2018-04-28T20:02:20.972Z,5.83
2018-04-28T20:05:42.804Z,6.97
2018-04-28T20:09:05.429Z,5.80
2018-04-28T20:12:27.271Z,7.13
2018-04-28T20:15:49.043Z,6.00
2018-04-28T20:19:10.852Z,6.90
2018-04-28T20:22:38.526Z,5.40
2018-04-28T20:26:00.316Z,6.13
2018-04-28T20:29:22.097Z,6.97
2018-04-28T20:32:43.865Z,7.13
2018-04-28T20:36:05.702Z,6.80
2018-04-28T20:39:27.473Z,6.90
2018-04-28T20:42:49.299Z,6.40
2018-04-28T20:46:11.118Z,7.27
2018-04-28T20:49:32.916Z,7.70
2018-04-28T20:52:54.700Z,8.20
2018-04-28T20:56:16.569Z,7.93
2018-04-28T20:59:38.429Z,9.23
2018-04-28T21:03:00.289Z,8.13
2018-04-28T21:06:22.453Z,9.00
2018-04-28T21:09:46.103Z,7.10
2018-04-28T21:13:11.380Z,6.20
2018-04-28T21:16:33.214Z,6.87
2018-04-28T21:19:55.840Z,7.10
2018-04-28T21:23:20.522Z,6.70
2018-04-28T21:26:43.103Z,7.47
2018-04-28T21:30:05.346Z,8.40
2018-04-28T21:33:27.263Z,6.40
2018-04-28T21:36:49.985Z,8.00
2018-04-28T21:40:12.714Z,8.57
2018-04-28T21:43:36.559Z,9.23
2018-04-28T21:47:02.508Z,8.43
2018-04-28T21:50:24.421Z,11.93
2018-04-28T21:57:12.366Z,7.90
2018-04-28T22:00:34.222Z,10.23
2018-04-28T22:03:56.163Z,9.70
2018-04-28T22:07:30.503Z,9.73
2018-04-28T22:10:55.661Z,9.97
2018-04-28T22:14:17.572Z,9.27
2018-04-28T22:17:40.103Z,11.80
2018-04-28T22:21:01.915Z,9.00
2018-04-28T22:24:23.905Z,9.53
2018-04-28T22:27:46.731Z,9.50
2018-04-28T22:31:15.944Z,10.03
2018-04-28T22:34:37.917Z,8.40
2018-04-28T22:38:02.317Z,8.30
2018-04-28T22:41:24.295Z,7.37
2018-04-28T22:44:46.118Z,7.60
2018-04-28T22:48:07.968Z,7.43
2018-04-28T22:51:29.804Z,7.70
2018-04-28T22:54:51.624Z,7.13
2018-04-28T22:58:13.500Z,9.30
2018-04-28T23:01:35.316Z,9.93
2018-04-28T23:04:57.144Z,7.77
2018-04-28T23:08:18.984Z,9.10
2018-04-28T23:11:40.798Z,10.40
2018-04-28T23:15:03.544Z,10.00
2018-04-28T23:18:25.406Z,9.27
2018-04-28T23:21:47.208Z,9.10
2018-04-28T23:25:09.004Z,9.77
2018-04-28T23:28:30.780Z,8.40
2018-04-28T23:31:52.856Z,8.90
2018-04-28T23:35:14.706Z,9.87
2018-04-28T23:38:37.381Z,8.90
2018-04-28T23:41:59.236Z,7.97
2018-04-28T23:45:21.870Z,7.77
2018-04-28T23:48:43.840Z,8.20
2018-04-28T23:55:40.543Z,7.83
